sensor_id;sensor_type;location;lat;lon;timestamp;P1;durP1;ratioP1;P2;durP2;ratioP2
35576;SDS011;21680;52.400;16.920;2023-07-30T00:01:21;31.00;;;20.70;;
35576;SDS011;21680;52.400;16.920;2023-07-30T00:03:46;39.30;;;21.40;;
35576;SDS011;21680;52.400;16.920;2023-07-30T00:06:12;28.20;;;20.50;;
35576;SDS011;21680;52.400;16.920;2023-07-30T00:08:37;31.90;;;19.90;;
35576;SDS011;21680;52.400;16.920;2023-07-30T00:11:02;27.80;;;20.40;;
35576;SDS011;21680;52.400;16.920;2023-07-30T00:13:27;39.20;;;20.90;;
35576;SDS011;21680;52.400;16.920;2023-07-30T00:15:53;34.30;;;20.20;;
35576;SDS011;21680;52.400;16.920;2023-07-30T00:18:18;34.70;;;21.00;;
35576;SDS011;21680;52.400;16.920;2023-07-30T00:20:43;28.10;;;20.30;;
35576;SDS011;21680;52.400;16.920;2023-07-30T00:23:09;25.70;;;19.30;;
35576;SDS011;21680;52.400;16.920;2023-07-30T00:25:34;41.30;;;21.80;;
35576;SDS011;21680;52.400;16.920;2023-07-30T00:27:59;31.10;;;21.40;;
35576;SDS011;21680;52.400;16.920;2023-07-30T00:30:24;36.80;;;20.60;;
35576;SDS011;21680;52.400;16.920;2023-07-30T00:32:50;30.90;;;20.90;;
35576;SDS011;21680;52.400;16.920;2023-07-30T00:35:15;46.00;;;22.10;;
35576;SDS011;21680;52.400;16.920;2023-07-30T00:37:40;31.10;;;19.80;;
35576;SDS011;21680;52.400;16.920;2023-07-30T00:40:06;31.90;;;20.90;;
35576;SDS011;21680;52.400;16.920;2023-07-30T00:42:32;30.80;;;18.70;;
35576;SDS011;21680;52.400;16.920;2023-07-30T00:44:57;36.10;;;21.60;;
35576;SDS011;21680;52.400;16.920;2023-07-30T00:47:22;30.30;;;20.80;;
35576;SDS011;21680;52.400;16.920;2023-07-30T00:49:48;31.30;;;19.60;;
35576;SDS011;21680;52.400;16.920;2023-07-30T00:52:16;27.50;;;19.80;;
35576;SDS011;21680;52.400;16.920;2023-07-30T00:54:42;33.30;;;20.60;;
35576;SDS011;21680;52.400;16.920;2023-07-30T00:57:08;28.30;;;19.70;;
35576;SDS011;21680;52.400;16.920;2023-07-30T00:59:35;32.20;;;20.80;;
35576;SDS011;21680;52.400;16.920;2023-07-30T01:02:00;24.70;;;20.00;;
35576;SDS011;21680;52.400;16.920;2023-07-30T01:04:27;27.80;;;21.70;;
35576;SDS011;21680;52.400;16.920;2023-07-30T01:06:52;34.20;;;21.20;;
35576;SDS011;21680;52.400;16.920;2023-07-30T01:09:17;29.40;;;20.70;;
35576;SDS011;21680;52.400;16.920;2023-07-30T01:11:43;31.30;;;22.60;;
35576;SDS011;21680;52.400;16.920;2023-07-30T01:14:09;32.40;;;21.30;;
35576;SDS011;21680;52.400;16.920;2023-07-30T01:16:35;49.30;;;22.20;;
35576;SDS011;21680;52.400;16.920;2023-07-30T01:19:00;26.80;;;20.60;;
35576;SDS011;21680;52.400;16.920;2023-07-30T01:21:30;27.00;;;20.90;;
35576;SDS011;21680;52.400;16.920;2023-07-30T01:23:59;33.30;;;22.40;;
35576;SDS011;21680;52.400;16.920;2023-07-30T01:26:25;32.00;;;22.30;;
35576;SDS011;21680;52.400;16.920;2023-07-30T01:28:56;37.20;;;23.70;;
35576;SDS011;21680;52.400;16.920;2023-07-30T01:31:26;33.50;;;21.80;;
35576;SDS011;21680;52.400;16.920;2023-07-30T01:33:52;44.50;;;24.20;;
35576;SDS011;21680;52.400;16.920;2023-07-30T01:36:20;34.90;;;24.50;;
35576;SDS011;21680;52.400;16.920;2023-07-30T01:38:46;48.30;;;24.50;;
35576;SDS011;21680;52.400;16.920;2023-07-30T01:41:14;32.00;;;22.50;;
35576;SDS011;21680;52.400;16.920;2023-07-30T01:43:39;36.20;;;23.60;;
35576;SDS011;21680;52.400;16.920;2023-07-30T01:46:05;39.00;;;23.90;;
35576;SDS011;21680;52.400;16.920;2023-07-30T01:48:30;39.70;;;24.50;;
35576;SDS011;21680;52.400;16.920;2023-07-30T01:50:55;41.60;;;25.60;;
35576;SDS011;21680;52.400;16.920;2023-07-30T01:53:20;35.00;;;24.80;;
35576;SDS011;21680;52.400;16.920;2023-07-30T01:55:46;38.70;;;24.80;;
35576;SDS011;21680;52.400;16.920;2023-07-30T01:58:14;40.60;;;25.50;;
35576;SDS011;21680;52.400;16.920;2023-07-30T02:00:39;34.70;;;22.70;;
35576;SDS011;21680;52.400;16.920;2023-07-30T02:03:05;47.80;;;25.40;;
35576;SDS011;21680;52.400;16.920;2023-07-30T02:05:31;43.20;;;26.30;;
35576;SDS011;21680;52.400;16.920;2023-07-30T02:07:57;34.30;;;24.80;;
35576;SDS011;21680;52.400;16.920;2023-07-30T02:10:24;44.60;;;27.00;;
35576;SDS011;21680;52.400;16.920;2023-07-30T02:12:50;45.20;;;25.60;;
35576;SDS011;21680;52.400;16.920;2023-07-30T02:15:15;38.50;;;24.90;;
35576;SDS011;21680;52.400;16.920;2023-07-30T02:17:40;41.30;;;26.30;;
35576;SDS011;21680;52.400;16.920;2023-07-30T02:20:06;52.00;;;27.40;;
35576;SDS011;21680;52.400;16.920;2023-07-30T02:22:32;47.40;;;26.30;;
35576;SDS011;21680;52.400;16.920;2023-07-30T02:24:57;44.00;;;27.60;;
35576;SDS011;21680;52.400;16.920;2023-07-30T02:27:22;41.80;;;26.90;;
35576;SDS011;21680;52.400;16.920;2023-07-30T02:29:47;40.90;;;26.50;;
35576;SDS011;21680;52.400;16.920;2023-07-30T02:32:13;44.20;;;26.30;;
35576;SDS011;21680;52.400;16.920;2023-07-30T02:34:38;41.80;;;25.60;;
35576;SDS011;21680;52.400;16.920;2023-07-30T02:37:03;35.40;;;25.90;;
35576;SDS011;21680;52.400;16.920;2023-07-30T02:39:28;40.30;;;27.60;;
35576;SDS011;21680;52.400;16.920;2023-07-30T02:41:54;43.20;;;27.60;;
35576;SDS011;21680;52.400;16.920;2023-07-30T02:44:19;38.10;;;26.40;;
35576;SDS011;21680;52.400;16.920;2023-07-30T02:46:44;41.40;;;25.20;;
35576;SDS011;21680;52.400;16.920;2023-07-30T02:49:09;40.20;;;27.00;;
35576;SDS011;21680;52.400;16.920;2023-07-30T02:51:35;38.60;;;25.80;;
35576;SDS011;21680;52.400;16.920;2023-07-30T02:54:03;43.30;;;26.90;;
35576;SDS011;21680;52.400;16.920;2023-07-30T02:56:30;38.20;;;26.40;;
35576;SDS011;21680;52.400;16.920;2023-07-30T02:58:55;39.10;;;25.00;;
35576;SDS011;21680;52.400;16.920;2023-07-30T03:01:20;39.50;;;26.40;;
35576;SDS011;21680;52.400;16.920;2023-07-30T03:03:45;36.90;;;26.30;;
35576;SDS011;21680;52.400;16.920;2023-07-30T03:06:11;36.10;;;27.30;;
35576;SDS011;21680;52.400;16.920;2023-07-30T03:08:36;37.60;;;26.70;;
35576;SDS011;21680;52.400;16.920;2023-07-30T03:11:02;55.90;;;27.20;;
35576;SDS011;21680;52.400;16.920;2023-07-30T03:13:27;58.30;;;27.60;;
35576;SDS011;21680;52.400;16.920;2023-07-30T03:15:53;35.30;;;25.00;;
35576;SDS011;21680;52.400;16.920;2023-07-30T03:18:18;37.10;;;27.10;;
35576;SDS011;21680;52.400;16.920;2023-07-30T03:20:43;59.80;;;29.80;;
35576;SDS011;21680;52.400;16.920;2023-07-30T03:23:09;39.20;;;27.40;;
35576;SDS011;21680;52.400;16.920;2023-07-30T03:25:34;47.10;;;28.90;;
35576;SDS011;21680;52.400;16.920;2023-07-30T03:27:59;48.70;;;29.70;;
35576;SDS011;21680;52.400;16.920;2023-07-30T03:30:24;52.90;;;28.70;;
35576;SDS011;21680;52.400;16.920;2023-07-30T03:32:49;44.20;;;29.60;;
35576;SDS011;21680;52.400;16.920;2023-07-30T03:35:15;44.80;;;28.90;;
35576;SDS011;21680;52.400;16.920;2023-07-30T03:37:40;45.50;;;29.80;;
35576;SDS011;21680;52.400;16.920;2023-07-30T03:40:05;48.80;;;28.20;;
35576;SDS011;21680;52.400;16.920;2023-07-30T03:42:31;45.80;;;27.00;;
35576;SDS011;21680;52.400;16.920;2023-07-30T03:44:57;47.70;;;28.40;;
35576;SDS011;21680;52.400;16.920;2023-07-30T03:47:22;46.10;;;27.70;;
35576;SDS011;21680;52.400;16.920;2023-07-30T03:49:47;49.10;;;29.90;;
35576;SDS011;21680;52.400;16.920;2023-07-30T03:52:12;46.30;;;27.80;;
35576;SDS011;21680;52.400;16.920;2023-07-30T03:54:37;45.90;;;29.00;;
35576;SDS011;21680;52.400;16.920;2023-07-30T03:57:03;44.60;;;28.50;;
35576;SDS011;21680;52.400;16.920;2023-07-30T03:59:28;49.90;;;30.40;;
35576;SDS011;21680;52.400;16.920;2023-07-30T04:01:54;40.70;;;25.50;;
35576;SDS011;21680;52.400;16.920;2023-07-30T04:04:19;44.50;;;27.40;;
35576;SDS011;21680;52.400;16.920;2023-07-30T04:06:44;42.40;;;25.50;;
35576;SDS011;21680;52.400;16.920;2023-07-30T04:09:09;42.90;;;27.20;;
35576;SDS011;21680;52.400;16.920;2023-07-30T04:11:35;42.30;;;27.20;;
35576;SDS011;21680;52.400;16.920;2023-07-30T04:14:00;41.70;;;26.70;;
35576;SDS011;21680;52.400;16.920;2023-07-30T04:16:25;51.00;;;29.50;;
35576;SDS011;21680;52.400;16.920;2023-07-30T04:18:50;42.20;;;27.50;;
35576;SDS011;21680;52.400;16.920;2023-07-30T04:21:16;43.20;;;28.60;;
35576;SDS011;21680;52.400;16.920;2023-07-30T04:23:41;43.20;;;28.90;;
35576;SDS011;21680;52.400;16.920;2023-07-30T04:26:06;47.60;;;29.60;;
35576;SDS011;21680;52.400;16.920;2023-07-30T04:28:31;50.60;;;29.60;;
35576;SDS011;21680;52.400;16.920;2023-07-30T04:30:57;50.20;;;27.70;;
35576;SDS011;21680;52.400;16.920;2023-07-30T04:33:22;48.20;;;29.60;;
35576;SDS011;21680;52.400;16.920;2023-07-30T04:35:47;53.70;;;31.50;;
35576;SDS011;21680;52.400;16.920;2023-07-30T04:38:12;48.90;;;29.40;;
35576;SDS011;21680;52.400;16.920;2023-07-30T04:40:38;54.40;;;31.60;;
35576;SDS011;21680;52.400;16.920;2023-07-30T04:43:04;47.80;;;29.90;;
35576;SDS011;21680;52.400;16.920;2023-07-30T04:45:29;50.60;;;28.80;;
35576;SDS011;21680;52.400;16.920;2023-07-30T04:47:55;54.40;;;30.80;;
35576;SDS011;21680;52.400;16.920;2023-07-30T04:50:21;50.90;;;28.50;;
35576;SDS011;21680;52.400;16.920;2023-07-30T04:52:46;58.00;;;30.30;;
35576;SDS011;21680;52.400;16.920;2023-07-30T04:55:11;55.80;;;30.50;;
35576;SDS011;21680;52.400;16.920;2023-07-30T04:57:37;49.00;;;29.40;;
35576;SDS011;21680;52.400;16.920;2023-07-30T05:00:03;48.70;;;30.30;;
35576;SDS011;21680;52.400;16.920;2023-07-30T05:02:29;50.50;;;29.40;;
35576;SDS011;21680;52.400;16.920;2023-07-30T05:04:55;55.30;;;31.30;;
35576;SDS011;21680;52.400;16.920;2023-07-30T05:07:20;54.80;;;30.40;;
35576;SDS011;21680;52.400;16.920;2023-07-30T05:09:45;53.80;;;29.10;;
35576;SDS011;21680;52.400;16.920;2023-07-30T05:12:11;56.70;;;29.80;;
35576;SDS011;21680;52.400;16.920;2023-07-30T05:14:36;50.60;;;29.20;;
35576;SDS011;21680;52.400;16.920;2023-07-30T05:17:01;53.00;;;28.50;;
35576;SDS011;21680;52.400;16.920;2023-07-30T05:19:28;46.60;;;27.20;;
35576;SDS011;21680;52.400;16.920;2023-07-30T05:21:53;45.50;;;27.40;;
35576;SDS011;21680;52.400;16.920;2023-07-30T05:24:18;49.90;;;28.50;;
35576;SDS011;21680;52.400;16.920;2023-07-30T05:26:43;51.50;;;29.00;;
35576;SDS011;21680;52.400;16.920;2023-07-30T05:29:09;46.40;;;28.00;;
35576;SDS011;21680;52.400;16.920;2023-07-30T05:31:34;49.50;;;28.20;;
35576;SDS011;21680;52.400;16.920;2023-07-30T05:33:59;47.50;;;28.30;;
35576;SDS011;21680;52.400;16.920;2023-07-30T05:36:24;54.80;;;30.70;;
35576;SDS011;21680;52.400;16.920;2023-07-30T05:38:50;47.70;;;27.30;;
35576;SDS011;21680;52.400;16.920;2023-07-30T05:41:15;46.50;;;28.20;;
35576;SDS011;21680;52.400;16.920;2023-07-30T05:43:41;43.80;;;27.80;;
35576;SDS011;21680;52.400;16.920;2023-07-30T05:46:06;41.00;;;27.20;;
35576;SDS011;21680;52.400;16.920;2023-07-30T05:48:32;43.90;;;27.70;;
35576;SDS011;21680;52.400;16.920;2023-07-30T05:50:57;47.50;;;27.90;;
35576;SDS011;21680;52.400;16.920;2023-07-30T05:53:23;42.20;;;27.20;;
35576;SDS011;21680;52.400;16.920;2023-07-30T05:55:48;45.20;;;28.00;;
35576;SDS011;21680;52.400;16.920;2023-07-30T05:58:13;38.30;;;24.70;;
35576;SDS011;21680;52.400;16.920;2023-07-30T06:00:39;39.40;;;25.80;;
35576;SDS011;21680;52.400;16.920;2023-07-30T06:03:04;40.90;;;26.10;;
35576;SDS011;21680;52.400;16.920;2023-07-30T06:05:31;43.20;;;26.40;;
35576;SDS011;21680;52.400;16.920;2023-07-30T06:07:56;43.00;;;26.40;;
35576;SDS011;21680;52.400;16.920;2023-07-30T06:10:21;34.40;;;22.70;;
35576;SDS011;21680;52.400;16.920;2023-07-30T06:12:46;36.30;;;22.80;;
35576;SDS011;21680;52.400;16.920;2023-07-30T06:15:12;37.50;;;24.10;;
35576;SDS011;21680;52.400;16.920;2023-07-30T06:17:37;39.10;;;24.00;;
35576;SDS011;21680;52.400;16.920;2023-07-30T06:20:02;36.50;;;23.70;;
35576;SDS011;21680;52.400;16.920;2023-07-30T06:22:28;33.40;;;21.40;;
35576;SDS011;21680;52.400;16.920;2023-07-30T06:24:53;30.00;;;21.10;;
35576;SDS011;21680;52.400;16.920;2023-07-30T06:27:18;30.60;;;21.40;;
35576;SDS011;21680;52.400;16.920;2023-07-30T06:29:44;34.70;;;20.40;;
35576;SDS011;21680;52.400;16.920;2023-07-30T06:32:09;32.20;;;20.80;;
35576;SDS011;21680;52.400;16.920;2023-07-30T06:34:34;34.30;;;22.50;;
35576;SDS011;21680;52.400;16.920;2023-07-30T06:37:00;28.60;;;21.70;;
35576;SDS011;21680;52.400;16.920;2023-07-30T06:39:25;32.40;;;22.20;;
35576;SDS011;21680;52.400;16.920;2023-07-30T06:41:51;28.80;;;20.00;;
35576;SDS011;21680;52.400;16.920;2023-07-30T06:44:16;28.20;;;19.60;;
35576;SDS011;21680;52.400;16.920;2023-07-30T06:46:41;32.00;;;20.60;;
35576;SDS011;21680;52.400;16.920;2023-07-30T06:49:06;34.20;;;20.60;;
35576;SDS011;21680;52.400;16.920;2023-07-30T06:51:32;31.00;;;21.80;;
35576;SDS011;21680;52.400;16.920;2023-07-30T06:53:57;30.50;;;20.80;;
35576;SDS011;21680;52.400;16.920;2023-07-30T06:56:22;28.50;;;18.60;;
35576;SDS011;21680;52.400;16.920;2023-07-30T06:58:47;28.60;;;19.40;;
35576;SDS011;21680;52.400;16.920;2023-07-30T07:01:13;30.60;;;19.60;;
35576;SDS011;21680;52.400;16.920;2023-07-30T07:03:38;26.70;;;18.80;;
35576;SDS011;21680;52.400;16.920;2023-07-30T07:06:04;32.20;;;19.90;;
35576;SDS011;21680;52.400;16.920;2023-07-30T07:08:30;22.20;;;17.30;;
35576;SDS011;21680;52.400;16.920;2023-07-30T07:10:55;27.50;;;18.00;;
35576;SDS011;21680;52.400;16.920;2023-07-30T07:13:20;22.80;;;16.90;;
35576;SDS011;21680;52.400;16.920;2023-07-30T07:15:45;22.60;;;17.40;;
35576;SDS011;21680;52.400;16.920;2023-07-30T07:18:11;25.00;;;18.00;;
35576;SDS011;21680;52.400;16.920;2023-07-30T07:20:36;27.90;;;19.20;;
35576;SDS011;21680;52.400;16.920;2023-07-30T07:23:02;24.10;;;18.80;;
35576;SDS011;21680;52.400;16.920;2023-07-30T07:25:28;28.60;;;19.20;;
35576;SDS011;21680;52.400;16.920;2023-07-30T07:27:53;23.90;;;18.50;;
35576;SDS011;21680;52.400;16.920;2023-07-30T07:30:18;24.80;;;18.40;;
35576;SDS011;21680;52.400;16.920;2023-07-30T07:32:43;21.90;;;17.10;;
35576;SDS011;21680;52.400;16.920;2023-07-30T07:35:09;25.70;;;17.60;;
35576;SDS011;21680;52.400;16.920;2023-07-30T07:37:34;23.60;;;17.10;;
35576;SDS011;21680;52.400;16.920;2023-07-30T07:40:00;25.60;;;17.80;;
35576;SDS011;21680;52.400;16.920;2023-07-30T07:42:26;23.00;;;16.50;;
35576;SDS011;21680;52.400;16.920;2023-07-30T07:44:51;21.50;;;17.70;;
35576;SDS011;21680;52.400;16.920;2023-07-30T07:47:16;22.80;;;17.30;;
35576;SDS011;21680;52.400;16.920;2023-07-30T07:49:41;18.60;;;14.60;;
35576;SDS011;21680;52.400;16.920;2023-07-30T07:52:07;19.30;;;14.90;;
35576;SDS011;21680;52.400;16.920;2023-07-30T07:54:32;18.50;;;13.70;;
35576;SDS011;21680;52.400;16.920;2023-07-30T07:56:58;21.60;;;15.90;;
35576;SDS011;21680;52.400;16.920;2023-07-30T07:59:23;17.90;;;14.50;;
35576;SDS011;21680;52.400;16.920;2023-07-30T08:01:49;17.50;;;13.90;;
35576;SDS011;21680;52.400;16.920;2023-07-30T08:04:14;25.60;;;15.40;;
35576;SDS011;21680;52.400;16.920;2023-07-30T08:06:39;20.70;;;14.70;;
35576;SDS011;21680;52.400;16.920;2023-07-30T08:09:05;19.00;;;14.20;;
35576;SDS011;21680;52.400;16.920;2023-07-30T08:11:30;20.80;;;14.60;;
35576;SDS011;21680;52.400;16.920;2023-07-30T08:13:55;22.80;;;15.30;;
35576;SDS011;21680;52.400;16.920;2023-07-30T08:16:22;26.90;;;16.00;;
35576;SDS011;21680;52.400;16.920;2023-07-30T08:18:47;20.10;;;14.90;;
35576;SDS011;21680;52.400;16.920;2023-07-30T08:21:12;20.40;;;14.00;;
35576;SDS011;21680;52.400;16.920;2023-07-30T08:23:38;18.90;;;14.30;;
35576;SDS011;21680;52.400;16.920;2023-07-30T08:26:03;20.40;;;13.20;;
35576;SDS011;21680;52.400;16.920;2023-07-30T08:28:28;20.60;;;14.20;;
35576;SDS011;21680;52.400;16.920;2023-07-30T08:30:59;18.70;;;14.00;;
35576;SDS011;21680;52.400;16.920;2023-07-30T08:33:26;14.70;;;12.70;;
35576;SDS011;21680;52.400;16.920;2023-07-30T08:35:54;15.40;;;12.40;;
35576;SDS011;21680;52.400;16.920;2023-07-30T08:38:21;15.60;;;12.40;;
35576;SDS011;21680;52.400;16.920;2023-07-30T08:40:46;15.50;;;12.40;;
35576;SDS011;21680;52.400;16.920;2023-07-30T08:43:11;16.60;;;10.80;;
35576;SDS011;21680;52.400;16.920;2023-07-30T08:45:37;12.50;;;9.60;;
35576;SDS011;21680;52.400;16.920;2023-07-30T08:48:02;18.50;;;10.30;;
35576;SDS011;21680;52.400;16.920;2023-07-30T08:50:28;15.10;;;10.80;;
35576;SDS011;21680;52.400;16.920;2023-07-30T08:52:54;11.80;;;9.90;;
35576;SDS011;21680;52.400;16.920;2023-07-30T08:55:20;14.80;;;10.70;;
35576;SDS011;21680;52.400;16.920;2023-07-30T08:57:47;11.70;;;9.50;;
35576;SDS011;21680;52.400;16.920;2023-07-30T09:00:14;12.60;;;9.40;;
35576;SDS011;21680;52.400;16.920;2023-07-30T09:02:48;13.00;;;8.50;;
35576;SDS011;21680;52.400;16.920;2023-07-30T09:05:16;12.60;;;9.00;;
35576;SDS011;21680;52.400;16.920;2023-07-30T09:07:42;12.30;;;8.00;;
35576;SDS011;21680;52.400;16.920;2023-07-30T09:10:08;11.30;;;8.10;;
35576;SDS011;21680;52.400;16.920;2023-07-30T09:12:35;10.20;;;7.60;;
35576;SDS011;21680;52.400;16.920;2023-07-30T09:15:02;7.80;;;6.60;;
35576;SDS011;21680;52.400;16.920;2023-07-30T09:17:29;8.80;;;6.00;;
35576;SDS011;21680;52.400;16.920;2023-07-30T09:19:55;6.90;;;5.20;;
35576;SDS011;21680;52.400;16.920;2023-07-30T09:22:24;7.90;;;6.20;;
35576;SDS011;21680;52.400;16.920;2023-07-30T09:24:50;7.70;;;5.60;;
35576;SDS011;21680;52.400;16.920;2023-07-30T09:27:19;14.00;;;5.20;;
35576;SDS011;21680;52.400;16.920;2023-07-30T09:29:58;9.60;;;5.60;;
35576;SDS011;21680;52.400;16.920;2023-07-30T09:32:25;8.10;;;5.40;;
35576;SDS011;21680;52.400;16.920;2023-07-30T09:34:55;6.20;;;4.90;;
35576;SDS011;21680;52.400;16.920;2023-07-30T09:37:20;6.90;;;4.20;;
35576;SDS011;21680;52.400;16.920;2023-07-30T09:39:49;4.80;;;4.20;;
35576;SDS011;21680;52.400;16.920;2023-07-30T09:42:14;4.40;;;3.90;;
35576;SDS011;21680;52.400;16.920;2023-07-30T09:44:40;6.50;;;4.00;;
35576;SDS011;21680;52.400;16.920;2023-07-30T09:47:09;3.80;;;2.70;;
35576;SDS011;21680;52.400;16.920;2023-07-30T09:49:36;3.90;;;3.30;;
35576;SDS011;21680;52.400;16.920;2023-07-30T09:52:03;6.10;;;3.90;;
35576;SDS011;21680;52.400;16.920;2023-07-30T09:54:30;3.10;;;2.70;;
35576;SDS011;21680;52.400;16.920;2023-07-30T09:56:56;3.70;;;3.00;;
35576;SDS011;21680;52.400;16.920;2023-07-30T09:59:22;4.40;;;3.00;;
35576;SDS011;21680;52.400;16.920;2023-07-30T10:01:49;2.90;;;2.70;;
35576;SDS011;21680;52.400;16.920;2023-07-30T10:04:15;5.50;;;2.90;;
35576;SDS011;21680;52.400;16.920;2023-07-30T10:06:48;4.10;;;2.80;;
35576;SDS011;21680;52.400;16.920;2023-07-30T10:09:18;4.00;;;2.50;;
35576;SDS011;21680;52.400;16.920;2023-07-30T10:11:45;2.30;;;2.00;;
35576;SDS011;21680;52.400;16.920;2023-07-30T10:14:14;2.50;;;2.30;;
35576;SDS011;21680;52.400;16.920;2023-07-30T10:16:52;4.90;;;2.60;;
35576;SDS011;21680;52.400;16.920;2023-07-30T10:19:22;2.90;;;2.60;;
35576;SDS011;21680;52.400;16.920;2023-07-30T10:21:49;2.80;;;2.30;;
35576;SDS011;21680;52.400;16.920;2023-07-30T10:24:14;2.60;;;2.40;;
35576;SDS011;21680;52.400;16.920;2023-07-30T10:26:39;4.30;;;2.80;;
35576;SDS011;21680;52.400;16.920;2023-07-30T10:29:09;2.60;;;2.40;;
35576;SDS011;21680;52.400;16.920;2023-07-30T10:31:40;3.10;;;2.40;;
35576;SDS011;21680;52.400;16.920;2023-07-30T10:34:06;10.10;;;2.30;;
35576;SDS011;21680;52.400;16.920;2023-07-30T10:36:34;2.80;;;2.40;;
35576;SDS011;21680;52.400;16.920;2023-07-30T10:39:14;3.30;;;2.10;;
35576;SDS011;21680;52.400;16.920;2023-07-30T10:41:44;2.40;;;2.20;;
35576;SDS011;21680;52.400;16.920;2023-07-30T10:44:23;2.80;;;2.30;;
35576;SDS011;21680;52.400;16.920;2023-07-30T10:46:53;5.90;;;1.60;;
35576;SDS011;21680;52.400;16.920;2023-07-30T10:49:19;5.30;;;2.10;;
35576;SDS011;21680;52.400;16.920;2023-07-30T10:51:45;1.80;;;1.70;;
35576;SDS011;21680;52.400;16.920;2023-07-30T10:54:10;3.10;;;2.30;;
35576;SDS011;21680;52.400;16.920;2023-07-30T10:56:36;5.40;;;2.50;;
35576;SDS011;21680;52.400;16.920;2023-07-30T10:59:06;3.10;;;1.50;;
35576;SDS011;21680;52.400;16.920;2023-07-30T11:01:36;2.20;;;1.90;;
35576;SDS011;21680;52.400;16.920;2023-07-30T11:04:05;2.20;;;1.90;;
35576;SDS011;21680;52.400;16.920;2023-07-30T11:06:31;2.60;;;2.00;;
35576;SDS011;21680;52.400;16.920;2023-07-30T11:08:57;1.60;;;1.40;;
35576;SDS011;21680;52.400;16.920;2023-07-30T11:11:25;1.80;;;1.60;;
35576;SDS011;21680;52.400;16.920;2023-07-30T11:13:50;4.40;;;1.50;;
35576;SDS011;21680;52.400;16.920;2023-07-30T11:16:16;2.00;;;1.80;;
35576;SDS011;21680;52.400;16.920;2023-07-30T11:18:41;1.40;;;1.30;;
35576;SDS011;21680;52.400;16.920;2023-07-30T11:21:08;4.00;;;1.90;;
35576;SDS011;21680;52.400;16.920;2023-07-30T11:23:35;2.80;;;1.60;;
35576;SDS011;21680;52.400;16.920;2023-07-30T11:26:02;4.10;;;1.40;;
35576;SDS011;21680;52.400;16.920;2023-07-30T11:31:03;5.40;;;1.90;;
35576;SDS011;21680;52.400;16.920;2023-07-30T11:33:30;2.30;;;1.60;;
35576;SDS011;21680;52.400;16.920;2023-07-30T11:35:56;1.60;;;1.50;;
35576;SDS011;21680;52.400;16.920;2023-07-30T11:38:25;1.70;;;1.60;;
35576;SDS011;21680;52.400;16.920;2023-07-30T11:40:52;2.30;;;1.60;;
35576;SDS011;21680;52.400;16.920;2023-07-30T11:43:18;1.70;;;1.50;;
35576;SDS011;21680;52.400;16.920;2023-07-30T11:45:45;1.90;;;1.60;;
35576;SDS011;21680;52.400;16.920;2023-07-30T11:48:10;3.40;;;1.60;;
35576;SDS011;21680;52.400;16.920;2023-07-30T11:50:46;4.70;;;1.60;;
35576;SDS011;21680;52.400;16.920;2023-07-30T11:53:13;2.40;;;1.30;;
35576;SDS011;21680;52.400;16.920;2023-07-30T11:55:38;1.90;;;1.50;;
35576;SDS011;21680;52.400;16.920;2023-07-30T11:58:08;5.00;;;1.40;;
35576;SDS011;21680;52.400;16.920;2023-07-30T12:00:35;1.50;;;1.40;;
35576;SDS011;21680;52.400;16.920;2023-07-30T12:03:02;2.10;;;1.40;;
35576;SDS011;21680;52.400;16.920;2023-07-30T12:05:36;1.50;;;1.40;;
35576;SDS011;21680;52.400;16.920;2023-07-30T12:08:02;2.40;;;1.60;;
35576;SDS011;21680;52.400;16.920;2023-07-30T12:10:41;2.70;;;1.80;;
35576;SDS011;21680;52.400;16.920;2023-07-30T12:13:11;2.30;;;1.40;;
35576;SDS011;21680;52.400;16.920;2023-07-30T12:15:52;1.90;;;1.40;;
35576;SDS011;21680;52.400;16.920;2023-07-30T12:18:21;1.30;;;1.10;;
35576;SDS011;21680;52.400;16.920;2023-07-30T12:20:51;1.70;;;1.60;;
35576;SDS011;21680;52.400;16.920;2023-07-30T12:23:18;1.60;;;1.50;;
35576;SDS011;21680;52.400;16.920;2023-07-30T12:25:44;2.10;;;1.30;;
35576;SDS011;21680;52.400;16.920;2023-07-30T12:28:13;3.40;;;1.30;;
35576;SDS011;21680;52.400;16.920;2023-07-30T12:30:41;4.50;;;1.40;;
35576;SDS011;21680;52.400;16.920;2023-07-30T12:33:06;1.80;;;1.20;;
35576;SDS011;21680;52.400;16.920;2023-07-30T12:35:32;2.10;;;1.40;;
35576;SDS011;21680;52.400;16.920;2023-07-30T12:37:58;2.10;;;1.20;;
35576;SDS011;21680;52.400;16.920;2023-07-30T12:40:24;2.50;;;1.20;;
35576;SDS011;21680;52.400;16.920;2023-07-30T12:42:50;1.70;;;1.60;;
35576;SDS011;21680;52.400;16.920;2023-07-30T12:45:15;1.20;;;1.10;;
35576;SDS011;21680;52.400;16.920;2023-07-30T12:47:41;1.70;;;1.10;;
35576;SDS011;21680;52.400;16.920;2023-07-30T12:50:06;1.20;;;1.10;;
35576;SDS011;21680;52.400;16.920;2023-07-30T12:52:32;1.10;;;1.10;;
35576;SDS011;21680;52.400;16.920;2023-07-30T12:54:58;2.40;;;1.30;;
35576;SDS011;21680;52.400;16.920;2023-07-30T12:57:24;1.60;;;1.40;;
35576;SDS011;21680;52.400;16.920;2023-07-30T12:59:49;3.10;;;1.30;;
35576;SDS011;21680;52.400;16.920;2023-07-30T13:02:15;2.40;;;1.20;;
35576;SDS011;21680;52.400;16.920;2023-07-30T13:04:40;2.50;;;1.20;;
35576;SDS011;21680;52.400;16.920;2023-07-30T13:07:05;3.00;;;1.20;;
35576;SDS011;21680;52.400;16.920;2023-07-30T13:09:30;1.30;;;1.00;;
35576;SDS011;21680;52.400;16.920;2023-07-30T13:11:56;1.00;;;1.00;;
35576;SDS011;21680;52.400;16.920;2023-07-30T13:14:22;1.10;;;1.00;;
35576;SDS011;21680;52.400;16.920;2023-07-30T13:16:47;1.50;;;1.00;;
35576;SDS011;21680;52.400;16.920;2023-07-30T13:19:12;1.80;;;1.10;;
35576;SDS011;21680;52.400;16.920;2023-07-30T13:21:37;1.20;;;1.20;;
35576;SDS011;21680;52.400;16.920;2023-07-30T13:24:03;1.90;;;1.10;;
35576;SDS011;21680;52.400;16.920;2023-07-30T13:26:29;2.30;;;1.10;;
35576;SDS011;21680;52.400;16.920;2023-07-30T13:28:54;1.50;;;1.00;;
35576;SDS011;21680;52.400;16.920;2023-07-30T13:31:19;1.40;;;1.10;;
35576;SDS011;21680;52.400;16.920;2023-07-30T13:33:45;1.40;;;1.00;;
35576;SDS011;21680;52.400;16.920;2023-07-30T13:36:12;1.30;;;1.00;;
35576;SDS011;21680;52.400;16.920;2023-07-30T13:38:38;1.10;;;1.00;;
35576;SDS011;21680;52.400;16.920;2023-07-30T13:41:04;1.30;;;1.20;;
35576;SDS011;21680;52.400;16.920;2023-07-30T13:43:30;1.50;;;1.30;;
35576;SDS011;21680;52.400;16.920;2023-07-30T13:45:56;1.40;;;1.30;;
35576;SDS011;21680;52.400;16.920;2023-07-30T13:48:22;1.40;;;1.30;;
35576;SDS011;21680;52.400;16.920;2023-07-30T13:50:47;3.10;;;1.50;;
35576;SDS011;21680;52.400;16.920;2023-07-30T13:53:13;2.80;;;1.00;;
35576;SDS011;21680;52.400;16.920;2023-07-30T13:55:38;2.50;;;1.20;;
35576;SDS011;21680;52.400;16.920;2023-07-30T13:58:03;2.30;;;1.10;;
35576;SDS011;21680;52.400;16.920;2023-07-30T14:00:29;1.30;;;1.00;;
35576;SDS011;21680;52.400;16.920;2023-07-30T14:02:54;1.20;;;1.10;;
35576;SDS011;21680;52.400;16.920;2023-07-30T14:05:19;1.10;;;1.00;;
35576;SDS011;21680;52.400;16.920;2023-07-30T14:07:44;2.00;;;1.50;;
35576;SDS011;21680;52.400;16.920;2023-07-30T14:10:10;1.90;;;1.20;;
35576;SDS011;21680;52.400;16.920;2023-07-30T14:12:36;1.20;;;0.90;;
35576;SDS011;21680;52.400;16.920;2023-07-30T14:15:01;4.10;;;2.00;;